sensor_id;sensor_type;location;lat;lon;timestamp;pressure;altitude;pressure_sealevel;temperature;humidity
47809;BME280;33573;38.790;-77.084;2023-08-06T00:00:43;101173.41;;;30.05;37.01
47809;BME280;33573;38.790;-77.084;2023-08-06T00:03:08;101175.52;;;29.77;37.02
47809;BME280;33573;38.790;-77.084;2023-08-06T00:05:34;101176.54;;;30.05;37.03
47809;BME280;33573;38.790;-77.084;2023-08-06T00:08:00;101180.77;;;29.55;37.06
47809;BME280;33573;38.790;-77.084;2023-08-06T00:10:25;101181.05;;;30.02;37.14
47809;BME280;33573;38.790;-77.084;2023-08-06T00:12:51;101182.00;;;29.52;37.17
47809;BME280;33573;38.790;-77.084;2023-08-06T00:15:17;101183.68;;;29.82;37.13
47809;BME280;33573;38.790;-77.084;2023-08-06T00:17:42;101185.78;;;30.02;37.24
47809;BME280;33573;38.790;-77.084;2023-08-06T00:20:08;101188.79;;;30.14;37.12
47809;BME280;33573;38.790;-77.084;2023-08-06T00:22:35;101189.76;;;29.89;37.09
47809;BME280;33573;38.790;-77.084;2023-08-06T00:24:59;101186.53;;;29.67;37.20
47809;BME280;33573;38.790;-77.084;2023-08-06T00:27:25;101186.94;;;29.96;37.36
47809;BME280;33573;38.790;-77.084;2023-08-06T00:29:49;101190.62;;;29.96;37.33
47809;BME280;33573;38.790;-77.084;2023-08-06T00:32:15;101193.28;;;29.76;37.44
47809;BME280;33573;38.790;-77.084;2023-08-06T00:34:40;101193.98;;;30.25;37.55
47809;BME280;33573;38.790;-77.084;2023-08-06T00:37:06;101194.54;;;29.75;37.53
47809;BME280;33573;38.790;-77.084;2023-08-06T00:39:32;101196.87;;;30.04;38.24
47809;BME280;33573;38.790;-77.084;2023-08-06T00:41:56;101199.01;;;30.33;37.94
47809;BME280;33573;38.790;-77.084;2023-08-06T00:44:21;101200.12;;;29.98;37.92
47809;BME280;33573;38.790;-77.084;2023-08-06T00:46:46;101202.30;;;30.01;38.06
47809;BME280;33573;38.790;-77.084;2023-08-06T00:49:12;101204.57;;;30.05;38.09
47809;BME280;33573;38.790;-77.084;2023-08-06T00:51:37;101209.65;;;30.58;38.18
47809;BME280;33573;38.790;-77.084;2023-08-06T00:54:03;101213.21;;;30.23;38.13
47809;BME280;33573;38.790;-77.084;2023-08-06T00:56:29;101216.98;;;30.17;38.37
47809;BME280;33573;38.790;-77.084;2023-08-06T00:58:54;101219.62;;;30.24;39.67
47809;BME280;33573;38.790;-77.084;2023-08-06T01:01:19;101221.80;;;30.20;40.62
47809;BME280;33573;38.790;-77.084;2023-08-06T01:03:45;101223.76;;;30.27;40.46
47809;BME280;33573;38.790;-77.084;2023-08-06T01:06:10;101224.22;;;30.34;39.89
47809;BME280;33573;38.790;-77.084;2023-08-06T01:08:43;101226.20;;;30.48;40.22
47809;BME280;33573;38.790;-77.084;2023-08-06T01:11:15;101231.41;;;30.63;39.82
47809;BME280;33573;38.790;-77.084;2023-08-06T01:13:32;101235.13;;;30.72;39.53
47809;BME280;33573;38.790;-77.084;2023-08-06T01:15:55;101237.95;;;30.54;39.89
47809;BME280;33573;38.790;-77.084;2023-08-06T01:18:17;101241.98;;;30.81;39.47
47809;BME280;33573;38.790;-77.084;2023-08-06T01:20:42;101242.50;;;30.76;39.93
47809;BME280;33573;38.790;-77.084;2023-08-06T01:23:07;101246.85;;;30.74;40.32
47809;BME280;33573;38.790;-77.084;2023-08-06T01:25:36;101249.00;;;30.60;40.35
47809;BME280;33573;38.790;-77.084;2023-08-06T01:28:02;101252.55;;;30.27;40.33
47809;BME280;33573;38.790;-77.084;2023-08-06T01:30:27;101256.35;;;30.89;40.25
47809;BME280;33573;38.790;-77.084;2023-08-06T01:32:53;101258.41;;;30.76;40.39
47809;BME280;33573;38.790;-77.084;2023-08-06T01:35:16;101260.81;;;30.84;40.00
47809;BME280;33573;38.790;-77.084;2023-08-06T01:37:40;101262.02;;;30.85;40.12
47809;BME280;33573;38.790;-77.084;2023-08-06T01:40:07;101264.13;;;30.30;40.27
47809;BME280;33573;38.790;-77.084;2023-08-06T01:42:31;101263.83;;;30.28;40.64
47809;BME280;33573;38.790;-77.084;2023-08-06T01:44:56;101268.07;;;30.41;40.14
47809;BME280;33573;38.790;-77.084;2023-08-06T01:47:22;101267.89;;;30.49;40.16
47809;BME280;33573;38.790;-77.084;2023-08-06T01:49:48;101265.62;;;30.62;40.31
47809;BME280;33573;38.790;-77.084;2023-08-06T01:52:13;101264.05;;;30.57;40.09
47809;BME280;33573;38.790;-77.084;2023-08-06T01:54:38;101266.13;;;30.44;40.08
47809;BME280;33573;38.790;-77.084;2023-08-06T01:57:05;101268.39;;;30.31;40.84
47809;BME280;33573;38.790;-77.084;2023-08-06T01:59:30;101268.50;;;30.69;40.38
47809;BME280;33573;38.790;-77.084;2023-08-06T02:01:55;101263.21;;;30.38;40.63
47809;BME280;33573;38.790;-77.084;2023-08-06T02:04:21;101259.52;;;30.51;40.55
47809;BME280;33573;38.790;-77.084;2023-08-06T02:06:46;101260.10;;;30.10;41.13
47809;BME280;33573;38.790;-77.084;2023-08-06T02:09:12;101261.52;;;29.95;41.46
47809;BME280;33573;38.790;-77.084;2023-08-06T02:11:37;101264.89;;;30.30;40.95
47809;BME280;33573;38.790;-77.084;2023-08-06T02:14:03;101269.88;;;30.61;41.12
47809;BME280;33573;38.790;-77.084;2023-08-06T02:16:28;101276.49;;;29.81;41.84
47809;BME280;33573;38.790;-77.084;2023-08-06T02:18:53;101279.11;;;29.29;42.70
47809;BME280;33573;38.790;-77.084;2023-08-06T02:21:18;101280.55;;;29.10;42.78
47809;BME280;33573;38.790;-77.084;2023-08-06T02:23:43;101281.47;;;29.82;42.37
47809;BME280;33573;38.790;-77.084;2023-08-06T02:26:09;101281.76;;;29.43;42.20
47809;BME280;33573;38.790;-77.084;2023-08-06T02:28:34;101280.48;;;29.55;42.25
47809;BME280;33573;38.790;-77.084;2023-08-06T02:31:00;101283.40;;;29.24;42.06
47809;BME280;33573;38.790;-77.084;2023-08-06T02:33:26;101285.04;;;29.91;41.35
47809;BME280;33573;38.790;-77.084;2023-08-06T02:35:51;101286.95;;;30.08;41.44
47809;BME280;33573;38.790;-77.084;2023-08-06T02:38:17;101292.50;;;29.44;41.92
47809;BME280;33573;38.790;-77.084;2023-08-06T02:40:44;101295.32;;;29.41;42.06
47809;BME280;33573;38.790;-77.084;2023-08-06T02:43:08;101300.26;;;29.50;42.50
47809;BME280;33573;38.790;-77.084;2023-08-06T02:45:33;101302.15;;;29.68;41.78
47809;BME280;33573;38.790;-77.084;2023-08-06T02:47:59;101303.48;;;29.15;42.42
47809;BME280;33573;38.790;-77.084;2023-08-06T02:50:24;101300.79;;;29.48;42.03
47809;BME280;33573;38.790;-77.084;2023-08-06T02:52:50;101305.10;;;28.64;43.11
47809;BME280;33573;38.790;-77.084;2023-08-06T02:55:14;101302.75;;;28.90;42.77
47809;BME280;33573;38.790;-77.084;2023-08-06T02:57:40;101300.75;;;29.49;42.17
47809;BME280;33573;38.790;-77.084;2023-08-06T03:00:07;101303.50;;;29.77;41.80
47809;BME280;33573;38.790;-77.084;2023-08-06T03:02:31;101305.01;;;29.45;42.32
47809;BME280;33573;38.790;-77.084;2023-08-06T03:04:56;101306.06;;;29.33;42.01
47809;BME280;33573;38.790;-77.084;2023-08-06T03:07:22;101302.65;;;29.41;42.17
47809;BME280;33573;38.790;-77.084;2023-08-06T03:09:48;101304.94;;;29.45;42.06
47809;BME280;33573;38.790;-77.084;2023-08-06T03:12:13;101310.46;;;29.75;42.21
47809;BME280;33573;38.790;-77.084;2023-08-06T03:14:38;101312.39;;;28.99;42.83
47809;BME280;33573;38.790;-77.084;2023-08-06T03:17:05;101311.99;;;29.11;43.20
47809;BME280;33573;38.790;-77.084;2023-08-06T03:19:29;101318.13;;;29.23;43.05
47809;BME280;33573;38.790;-77.084;2023-08-06T03:21:55;101318.61;;;29.09;43.24
47809;BME280;33573;38.790;-77.084;2023-08-06T03:24:21;101323.57;;;28.23;44.14
47809;BME280;33573;38.790;-77.084;2023-08-06T03:26:46;101324.43;;;27.64;45.23
47809;BME280;33573;38.790;-77.084;2023-08-06T03:29:11;101320.37;;;28.24;44.63
47809;BME280;33573;38.790;-77.084;2023-08-06T03:31:37;101320.92;;;28.36;44.22
47809;BME280;33573;38.790;-77.084;2023-08-06T03:34:03;101320.00;;;28.02;44.88
47809;BME280;33573;38.790;-77.084;2023-08-06T03:36:28;101326.08;;;28.76;43.82
47809;BME280;33573;38.790;-77.084;2023-08-06T03:38:53;101326.18;;;28.52;44.36
47809;BME280;33573;38.790;-77.084;2023-08-06T03:41:19;101329.66;;;27.68;46.20
47809;BME280;33573;38.790;-77.084;2023-08-06T03:43:44;101338.27;;;27.76;45.08
47809;BME280;33573;38.790;-77.084;2023-08-06T03:46:09;101341.14;;;28.90;43.75
47809;BME280;33573;38.790;-77.084;2023-08-06T03:48:34;101342.23;;;28.94;43.91
47809;BME280;33573;38.790;-77.084;2023-08-06T03:51:00;101343.06;;;29.53;43.17
47809;BME280;33573;38.790;-77.084;2023-08-06T03:53:26;101346.80;;;29.77;42.96
47809;BME280;33573;38.790;-77.084;2023-08-06T03:55:51;101346.81;;;29.37;42.93
47809;BME280;33573;38.790;-77.084;2023-08-06T03:58:16;101344.44;;;29.56;42.93
47809;BME280;33573;38.790;-77.084;2023-08-06T04:00:42;101352.76;;;29.75;42.73
47809;BME280;33573;38.790;-77.084;2023-08-06T04:03:07;101358.48;;;29.53;43.07
47809;BME280;33573;38.790;-77.084;2023-08-06T04:05:33;101367.00;;;29.25;43.60
47809;BME280;33573;38.790;-77.084;2023-08-06T04:07:58;101363.54;;;29.49;43.31
47809;BME280;33573;38.790;-77.084;2023-08-06T04:10:24;101365.04;;;29.50;43.34
47809;BME280;33573;38.790;-77.084;2023-08-06T04:12:49;101367.79;;;29.48;43.43
47809;BME280;33573;38.790;-77.084;2023-08-06T04:15:15;101365.74;;;29.51;43.60
47809;BME280;33573;38.790;-77.084;2023-08-06T04:17:40;101361.56;;;29.58;43.43
47809;BME280;33573;38.790;-77.084;2023-08-06T04:20:07;101355.53;;;29.23;43.75
47809;BME280;33573;38.790;-77.084;2023-08-06T04:22:36;101352.64;;;29.18;43.78
47809;BME280;33573;38.790;-77.084;2023-08-06T04:24:56;101348.05;;;28.73;44.43
47809;BME280;33573;38.790;-77.084;2023-08-06T04:27:21;101354.90;;;29.06;43.70
47809;BME280;33573;38.790;-77.084;2023-08-06T04:29:47;101348.03;;;28.67;44.48
47809;BME280;33573;38.790;-77.084;2023-08-06T04:32:12;101351.65;;;28.79;44.15
47809;BME280;33573;38.790;-77.084;2023-08-06T04:34:37;101354.21;;;29.45;43.54
47809;BME280;33573;38.790;-77.084;2023-08-06T04:37:04;101352.93;;;29.41;43.88
47809;BME280;33573;38.790;-77.084;2023-08-06T04:39:29;101356.42;;;28.91;44.03
47809;BME280;33573;38.790;-77.084;2023-08-06T04:41:55;101360.31;;;28.98;43.77
47809;BME280;33573;38.790;-77.084;2023-08-06T04:44:21;101356.65;;;28.15;45.34
47809;BME280;33573;38.790;-77.084;2023-08-06T04:46:45;101355.24;;;27.44;46.47
47809;BME280;33573;38.790;-77.084;2023-08-06T04:49:10;101355.38;;;26.84;47.47
47809;BME280;33573;38.790;-77.084;2023-08-06T04:51:36;101355.37;;;25.96;49.60
47809;BME280;33573;38.790;-77.084;2023-08-06T04:54:02;101362.34;;;26.08;49.85
47809;BME280;33573;38.790;-77.084;2023-08-06T04:56:27;101364.48;;;26.21;49.26
47809;BME280;33573;38.790;-77.084;2023-08-06T04:58:52;101361.75;;;25.29;51.35
47809;BME280;33573;38.790;-77.084;2023-08-06T05:01:17;101360.23;;;25.64;50.86
47809;BME280;33573;38.790;-77.084;2023-08-06T05:03:43;101356.51;;;25.14;51.46
47809;BME280;33573;38.790;-77.084;2023-08-06T05:06:09;101354.39;;;26.32;49.02
47809;BME280;33573;38.790;-77.084;2023-08-06T05:08:34;101348.51;;;25.25;50.67
47809;BME280;33573;38.790;-77.084;2023-08-06T05:11:00;101346.13;;;25.69;50.67
47809;BME280;33573;38.790;-77.084;2023-08-06T05:13:25;101341.92;;;25.70;50.14
47809;BME280;33573;38.790;-77.084;2023-08-06T05:15:51;101339.43;;;25.40;51.30
47809;BME280;33573;38.790;-77.084;2023-08-06T05:18:16;101338.91;;;25.25;51.04
47809;BME280;33573;38.790;-77.084;2023-08-06T05:20:42;101333.36;;;24.66;52.38
47809;BME280;33573;38.790;-77.084;2023-08-06T05:23:07;101324.28;;;24.65;52.45
47809;BME280;33573;38.790;-77.084;2023-08-06T05:25:33;101326.84;;;24.72;52.28
47809;BME280;33573;38.790;-77.084;2023-08-06T05:27:57;101327.99;;;23.97;54.38
47809;BME280;33573;38.790;-77.084;2023-08-06T05:30:22;101321.40;;;24.46;52.75
47809;BME280;33573;38.790;-77.084;2023-08-06T05:32:48;101317.29;;;24.89;51.85
47809;BME280;33573;38.790;-77.084;2023-08-06T05:35:13;101318.56;;;25.85;50.27
47809;BME280;33573;38.790;-77.084;2023-08-06T05:37:38;101316.74;;;25.59;51.11
47809;BME280;33573;38.790;-77.084;2023-08-06T05:40:04;101318.11;;;25.16;51.54
47809;BME280;33573;38.790;-77.084;2023-08-06T05:42:29;101321.04;;;25.28;50.86
47809;BME280;33573;38.790;-77.084;2023-08-06T05:44:55;101321.23;;;25.45;50.66
47809;BME280;33573;38.790;-77.084;2023-08-06T05:47:20;101324.23;;;24.77;52.52
47809;BME280;33573;38.790;-77.084;2023-08-06T05:49:46;101328.32;;;25.47;50.94
47809;BME280;33573;38.790;-77.084;2023-08-06T05:52:11;101330.79;;;25.42;50.67
47809;BME280;33573;38.790;-77.084;2023-08-06T05:54:36;101332.51;;;25.31;51.39
47809;BME280;33573;38.790;-77.084;2023-08-06T05:57:01;101331.65;;;26.14;49.03
47809;BME280;33573;38.790;-77.084;2023-08-06T05:59:27;101331.18;;;25.77;49.19
47809;BME280;33573;38.790;-77.084;2023-08-06T06:01:52;101327.90;;;25.43;50.67
47809;BME280;33573;38.790;-77.084;2023-08-06T06:04:18;101331.30;;;25.91;50.30
47809;BME280;33573;38.790;-77.084;2023-08-06T06:06:43;101332.80;;;26.06;49.11
47809;BME280;33573;38.790;-77.084;2023-08-06T06:09:08;101327.91;;;25.22;50.74
47809;BME280;33573;38.790;-77.084;2023-08-06T06:11:33;101327.41;;;25.29;51.67
47809;BME280;33573;38.790;-77.084;2023-08-06T06:13:59;101336.32;;;24.56;53.71
47809;BME280;33573;38.790;-77.084;2023-08-06T06:16:25;101334.85;;;24.38;53.95
47809;BME280;33573;38.790;-77.084;2023-08-06T06:18:50;101330.67;;;25.12;51.18
47809;BME280;33573;38.790;-77.084;2023-08-06T06:21:15;101334.84;;;23.64;55.52
47809;BME280;33573;38.790;-77.084;2023-08-06T06:23:41;101336.54;;;24.42;54.02
47809;BME280;33573;38.790;-77.084;2023-08-06T06:26:06;101335.44;;;24.42;53.47
47809;BME280;33573;38.790;-77.084;2023-08-06T06:28:31;101336.56;;;24.51;53.09
47809;BME280;33573;38.790;-77.084;2023-08-06T06:31:00;101336.85;;;24.52;52.59
47809;BME280;33573;38.790;-77.084;2023-08-06T06:33:22;101329.65;;;24.94;52.10
47809;BME280;33573;38.790;-77.084;2023-08-06T06:35:47;101332.52;;;23.87;54.47
47809;BME280;33573;38.790;-77.084;2023-08-06T06:38:13;101332.34;;;24.19;53.90
47809;BME280;33573;38.790;-77.084;2023-08-06T06:40:38;101333.39;;;23.89;54.19
47809;BME280;33573;38.790;-77.084;2023-08-06T06:43:03;101333.15;;;23.69;54.64
47809;BME280;33573;38.790;-77.084;2023-08-06T06:45:29;101334.55;;;23.72;54.72
47809;BME280;33573;38.790;-77.084;2023-08-06T06:47:54;101331.48;;;24.84;52.19
47809;BME280;33573;38.790;-77.084;2023-08-06T06:50:20;101332.69;;;23.88;54.30
47809;BME280;33573;38.790;-77.084;2023-08-06T06:52:45;101329.48;;;23.80;55.75
47809;BME280;33573;38.790;-77.084;2023-08-06T06:55:11;101328.77;;;23.77;55.92
47809;BME280;33573;38.790;-77.084;2023-08-06T06:57:36;101329.24;;;23.12;56.47
47809;BME280;33573;38.790;-77.084;2023-08-06T07:00:02;101323.75;;;23.50;55.57
47809;BME280;33573;38.790;-77.084;2023-08-06T07:02:28;101322.67;;;24.11;54.54
47809;BME280;33573;38.790;-77.084;2023-08-06T07:04:53;101319.45;;;23.98;54.29
47809;BME280;33573;38.790;-77.084;2023-08-06T07:07:18;101315.00;;;23.68;55.39
47809;BME280;33573;38.790;-77.084;2023-08-06T07:09:44;101315.88;;;23.92;54.62
47809;BME280;33573;38.790;-77.084;2023-08-06T07:12:09;101321.04;;;23.43;56.28
47809;BME280;33573;38.790;-77.084;2023-08-06T07:14:34;101320.88;;;23.47;55.41
47809;BME280;33573;38.790;-77.084;2023-08-06T07:17:00;101325.12;;;23.39;55.56
47809;BME280;33573;38.790;-77.084;2023-08-06T07:19:25;101323.23;;;22.62;56.98
47809;BME280;33573;38.790;-77.084;2023-08-06T07:21:51;101321.25;;;23.26;56.30
47809;BME280;33573;38.790;-77.084;2023-08-06T07:24:16;101321.81;;;23.19;56.46
47809;BME280;33573;38.790;-77.084;2023-08-06T07:26:41;101325.70;;;23.58;55.66
47809;BME280;33573;38.790;-77.084;2023-08-06T07:29:06;101327.78;;;23.50;55.12
47809;BME280;33573;38.790;-77.084;2023-08-06T07:31:32;101323.69;;;23.50;55.22
47809;BME280;33573;38.790;-77.084;2023-08-06T07:33:57;101325.67;;;22.80;56.56
47809;BME280;33573;38.790;-77.084;2023-08-06T07:36:22;101324.51;;;23.57;55.80
47809;BME280;33573;38.790;-77.084;2023-08-06T07:38:47;101324.22;;;23.02;56.60
47809;BME280;33573;38.790;-77.084;2023-08-06T07:41:12;101322.56;;;23.81;55.31
47809;BME280;33573;38.790;-77.084;2023-08-06T07:43:38;101322.10;;;23.65;55.51
47809;BME280;33573;38.790;-77.084;2023-08-06T07:46:03;101324.56;;;23.87;54.39
47809;BME280;33573;38.790;-77.084;2023-08-06T07:48:29;101327.84;;;23.70;55.07
47809;BME280;33573;38.790;-77.084;2023-08-06T07:50:54;101329.20;;;23.84;54.86
47809;BME280;33573;38.790;-77.084;2023-08-06T07:53:20;101328.85;;;23.49;55.08
47809;BME280;33573;38.790;-77.084;2023-08-06T07:55:49;101333.20;;;23.94;54.08
47809;BME280;33573;38.790;-77.084;2023-08-06T07:58:11;101338.35;;;23.67;55.63
47809;BME280;33573;38.790;-77.084;2023-08-06T08:00:36;101339.24;;;23.40;56.25
47809;BME280;33573;38.790;-77.084;2023-08-06T08:03:01;101331.56;;;24.14;54.17
47809;BME280;33573;38.790;-77.084;2023-08-06T08:05:27;101325.87;;;23.47;55.46
47809;BME280;33573;38.790;-77.084;2023-08-06T08:07:52;101326.25;;;23.10;56.50
47809;BME280;33573;38.790;-77.084;2023-08-06T08:10:18;101325.07;;;22.45;58.26
47809;BME280;33573;38.790;-77.084;2023-08-06T08:12:43;101324.78;;;22.84;57.25
47809;BME280;33573;38.790;-77.084;2023-08-06T08:15:09;101325.55;;;22.72;57.96
47809;BME280;33573;38.790;-77.084;2023-08-06T08:17:34;101326.32;;;22.41;58.38
47809;BME280;33573;38.790;-77.084;2023-08-06T08:20:00;101325.29;;;22.94;57.40
47809;BME280;33573;38.790;-77.084;2023-08-06T08:22:25;101321.52;;;22.38;58.44
47809;BME280;33573;38.790;-77.084;2023-08-06T08:24:51;101322.06;;;22.65;58.08
47809;BME280;33573;38.790;-77.084;2023-08-06T08:27:16;101320.87;;;22.78;57.58
47809;BME280;33573;38.790;-77.084;2023-08-06T08:29:41;101321.81;;;22.96;56.86
47809;BME280;33573;38.790;-77.084;2023-08-06T08:32:07;101327.71;;;23.52;55.74
47809;BME280;33573;38.790;-77.084;2023-08-06T08:34:32;101323.47;;;22.49;57.20
47809;BME280;33573;38.790;-77.084;2023-08-06T08:36:58;101326.23;;;23.00;56.47
47809;BME280;33573;38.790;-77.084;2023-08-06T08:39:23;101333.07;;;22.84;56.19
47809;BME280;33573;38.790;-77.084;2023-08-06T08:41:49;101337.98;;;23.47;55.19
47809;BME280;33573;38.790;-77.084;2023-08-06T08:44:16;101340.35;;;22.37;57.92
47809;BME280;33573;38.790;-77.084;2023-08-06T08:46:41;101343.88;;;22.57;57.43
47809;BME280;33573;38.790;-77.084;2023-08-06T08:49:05;101343.01;;;22.80;57.00
47809;BME280;33573;38.790;-77.084;2023-08-06T08:51:31;101336.93;;;23.16;56.24
47809;BME280;33573;38.790;-77.084;2023-08-06T08:53:56;101332.54;;;23.52;54.60
47809;BME280;33573;38.790;-77.084;2023-08-06T08:56:22;101326.61;;;22.29;58.15
47809;BME280;33573;38.790;-77.084;2023-08-06T08:58:48;101319.06;;;22.70;57.31
47809;BME280;33573;38.790;-77.084;2023-08-06T09:01:13;101314.88;;;22.54;57.82
47809;BME280;33573;38.790;-77.084;2023-08-06T09:03:39;101314.49;;;22.52;58.47
47809;BME280;33573;38.790;-77.084;2023-08-06T09:06:04;101317.58;;;23.23;55.65
47809;BME280;33573;38.790;-77.084;2023-08-06T09:08:34;101316.67;;;22.72;56.79
47809;BME280;33573;38.790;-77.084;2023-08-06T09:10:54;101318.13;;;22.57;56.41
47809;BME280;33573;38.790;-77.084;2023-08-06T09:13:20;101318.84;;;22.66;56.88
47809;BME280;33573;38.790;-77.084;2023-08-06T09:15:45;101317.45;;;22.70;56.76
47809;BME280;33573;38.790;-77.084;2023-08-06T09:18:11;101319.23;;;22.15;57.93
47809;BME280;33573;38.790;-77.084;2023-08-06T09:20:37;101320.30;;;22.35;58.01
47809;BME280;33573;38.790;-77.084;2023-08-06T09:23:07;101326.68;;;22.62;56.60
47809;BME280;33573;38.790;-77.084;2023-08-06T09:25:27;101325.20;;;22.91;56.22
47809;BME280;33573;38.790;-77.084;2023-08-06T09:27:52;101320.86;;;22.33;57.06
47809;BME280;33573;38.790;-77.084;2023-08-06T09:32:45;101324.20;;;22.46;57.23
47809;BME280;33573;38.790;-77.084;2023-08-06T09:35:15;101326.98;;;22.62;56.28
47809;BME280;33573;38.790;-77.084;2023-08-06T09:37:36;101323.43;;;22.29;57.48
47809;BME280;33573;38.790;-77.084;2023-08-06T09:39:59;101321.26;;;23.08;55.43
47809;BME280;33573;38.790;-77.084;2023-08-06T09:42:24;101325.18;;;22.42;55.76
47809;BME280;33573;38.790;-77.084;2023-08-06T09:44:50;101330.96;;;22.48;56.79
47809;BME280;33573;38.790;-77.084;2023-08-06T09:47:16;101331.09;;;22.43;56.70
47809;BME280;33573;38.790;-77.084;2023-08-06T09:49:42;101332.51;;;22.27;57.08
47809;BME280;33573;38.790;-77.084;2023-08-06T09:52:07;101339.75;;;22.02;57.24
47809;BME280;33573;38.790;-77.084;2023-08-06T09:54:33;101345.52;;;22.59;55.97
47809;BME280;33573;38.790;-77.084;2023-08-06T09:56:57;101348.58;;;22.25;57.42
47809;BME280;33573;38.790;-77.084;2023-08-06T09:59:23;101349.85;;;22.83;56.28
47809;BME280;33573;38.790;-77.084;2023-08-06T10:01:48;101346.96;;;21.96;58.43
47809;BME280;33573;38.790;-77.084;2023-08-06T10:04:14;101344.50;;;22.10;58.27
47809;BME280;33573;38.790;-77.084;2023-08-06T10:06:39;101349.81;;;22.36;57.94
47809;BME280;33573;38.790;-77.084;2023-08-06T10:09:04;101356.63;;;21.69;58.27
47809;BME280;33573;38.790;-77.084;2023-08-06T10:11:30;101356.50;;;21.84;58.55
47809;BME280;33573;38.790;-77.084;2023-08-06T10:14:00;101357.08;;;21.97;58.46
47809;BME280;33573;38.790;-77.084;2023-08-06T10:16:21;101353.60;;;21.95;58.48
47809;BME280;33573;38.790;-77.084;2023-08-06T10:18:47;101355.39;;;22.10;57.97
47809;BME280;33573;38.790;-77.084;2023-08-06T10:21:11;101360.19;;;22.11;57.22
47809;BME280;33573;38.790;-77.084;2023-08-06T10:23:39;101364.32;;;22.18;57.12
47809;BME280;33573;38.790;-77.084;2023-08-06T10:26:03;101371.05;;;22.86;56.71
47809;BME280;33573;38.790;-77.084;2023-08-06T10:28:34;101372.67;;;22.61;56.08
47809;BME280;33573;38.790;-77.084;2023-08-06T10:30:54;101369.00;;;22.14;57.23
47809;BME280;33573;38.790;-77.084;2023-08-06T10:33:20;101369.50;;;22.71;56.61
47809;BME280;33573;38.790;-77.084;2023-08-06T10:35:46;101368.92;;;21.83;59.46
47809;BME280;33573;38.790;-77.084;2023-08-06T10:38:11;101362.96;;;22.13;58.63
47809;BME280;33573;38.790;-77.084;2023-08-06T10:40:36;101364.44;;;22.42;58.86
47809;BME280;33573;38.790;-77.084;2023-08-06T10:43:02;101369.81;;;22.71;56.62
47809;BME280;33573;38.790;-77.084;2023-08-06T10:45:27;101374.15;;;23.12;56.22
47809;BME280;33573;38.790;-77.084;2023-08-06T10:47:52;101374.46;;;22.93;56.05
47809;BME280;33573;38.790;-77.084;2023-08-06T10:50:18;101377.27;;;23.07;55.75
47809;BME280;33573;38.790;-77.084;2023-08-06T10:52:44;101378.85;;;23.26;56.07
47809;BME280;33573;38.790;-77.084;2023-08-06T10:55:09;101381.08;;;23.15;55.87
47809;BME280;33573;38.790;-77.084;2023-08-06T10:57:34;101384.16;;;23.20;55.71
47809;BME280;33573;38.790;-77.084;2023-08-06T10:59:59;101385.38;;;23.37;55.68
47809;BME280;33573;38.790;-77.084;2023-08-06T11:02:25;101384.46;;;24.03;53.46
47809;BME280;33573;38.790;-77.084;2023-08-06T11:04:51;101378.98;;;22.87;56.69
47809;BME280;33573;38.790;-77.084;2023-08-06T11:07:16;101380.76;;;22.97;56.72
47809;BME280;33573;38.790;-77.084;2023-08-06T11:09:41;101379.53;;;23.13;56.63
47809;BME280;33573;38.790;-77.084;2023-08-06T11:12:10;101375.50;;;23.25;55.64
47809;BME280;33573;38.790;-77.084;2023-08-06T11:14:32;101373.70;;;23.03;56.44
47809;BME280;33573;38.790;-77.084;2023-08-06T11:16:58;101374.46;;;23.35;55.27
47809;BME280;33573;38.790;-77.084;2023-08-06T11:19:24;101373.70;;;23.39;56.10
47809;BME280;33573;38.790;-77.084;2023-08-06T11:21:50;101374.76;;;23.62;56.17
47809;BME280;33573;38.790;-77.084;2023-08-06T11:24:14;101374.93;;;24.88;52.92
47809;BME280;33573;38.790;-77.084;2023-08-06T11:26:39;101367.65;;;25.26;51.59
47809;BME280;33573;38.790;-77.084;2023-08-06T11:29:04;101375.07;;;25.18;51.68
47809;BME280;33573;38.790;-77.084;2023-08-06T11:31:30;101378.71;;;25.59;51.03
47809;BME280;33573;38.790;-77.084;2023-08-06T11:33:55;101378.23;;;26.26;49.70
47809;BME280;33573;38.790;-77.084;2023-08-06T11:36:29;101373.92;;;25.80;50.92
47809;BME280;33573;38.790;-77.084;2023-08-06T11:38:47;101381.74;;;26.62;48.68
47809;BME280;33573;38.790;-77.084;2023-08-06T11:41:12;101385.82;;;26.74;48.69
47809;BME280;33573;38.790;-77.084;2023-08-06T11:43:37;101383.87;;;27.30;48.43
47809;BME280;33573;38.790;-77.084;2023-08-06T11:46:02;101381.49;;;27.18;48.35
47809;BME280;33573;38.790;-77.084;2023-08-06T11:48:28;101386.87;;;27.06;48.27
47809;BME280;33573;38.790;-77.084;2023-08-06T11:50:55;101382.81;;;27.07;48.40
47809;BME280;33573;38.790;-77.084;2023-08-06T11:53:18;101380.62;;;27.51;48.42
47809;BME280;33573;38.790;-77.084;2023-08-06T11:55:44;101384.65;;;26.96;48.76
47809;BME280;33573;38.790;-77.084;2023-08-06T11:58:10;101386.82;;;27.61;48.21
47809;BME280;33573;38.790;-77.084;2023-08-06T12:00:34;101383.14;;;27.77;48.22
47809;BME280;33573;38.790;-77.084;2023-08-06T12:02:59;101378.80;;;27.86;47.79
47809;BME280;33573;38.790;-77.084;2023-08-06T12:05:29;101375.96;;;27.84;48.22
47809;BME280;33573;38.790;-77.084;2023-08-06T12:07:51;101374.01;;;27.95;48.49
47809;BME280;33573;38.790;-77.084;2023-08-06T12:10:17;101377.28;;;27.77;48.45
47809;BME280;33573;38.790;-77.084;2023-08-06T12:12:41;101374.73;;;27.48;48.60
47809;BME280;33573;38.790;-77.084;2023-08-06T12:15:07;101370.94;;;27.95;48.55
47809;BME280;33573;38.790;-77.084;2023-08-06T12:17:31;101372.59;;;28.18;48.53
47809;BME280;33573;38.790;-77.084;2023-08-06T12:19:57;101370.80;;;28.03;48.48
47809;BME280;33573;38.790;-77.084;2023-08-06T12:22:22;101365.26;;;28.02;49.00